Latest Weather Observations for Gayndah

IDQ60801

Issued at 8:35 am EST Thursday 23 October 2014 (issued every 30 minutes, with the page automatically refreshed every 10 minutes)

About weather observations | Map of weather stations | Latest weather observations for QLD | Other Formats
Station Details ID: 039066 Name: GAYNDAH AIRPORT Lat: -25.62 Lon: 151.62 Height: 110.9 m
Data from the previous 72 hours. | See also: Recent months at Gayndah
Date/Time
EST
Temp
°C
App
Temp
°C
Dew
Point
Rel
Hum
%
Delta-T
°C
Wind Press
QNH
hPa
Press
MSL
hPa
Rain
since 9 am
mm
Dir
 
Spd
km/h
Gust
km/h
Spd
kts
Gust
kts
23/08:30am 21.0 19.9 10.5 51 5.7 N 7 13 4 7 1022.3 1021.9 0.0
23/08:00am 20.5 20.0 10.9 54 5.3 NNE 4 13 2 7 1022.5 1022.1 0.0
23/07:30am 18.7 18.4 11.5 63 4.0 W 4 7 2 4 1022.7 1022.3 0.0
23/07:00am 16.8 16.5 11.3 70 3.0 W 4 7 2 4 1022.6 1022.2 0.0
23/06:30am 14.9 14.4 10.7 76 2.2 WSW 4 4 2 2 1022.4 1022.0 0.0
23/06:00am 13.0 13.1 10.0 82 1.5 CALM 0 0 0 0 1022.2 1021.8 0.0
23/05:30am 11.5 11.3 9.1 85 1.2 CALM 0 0 0 0 1022.1 1021.7 0.0
23/05:00am 11.8 11.8 9.7 87 1.1 CALM 0 0 0 0 1021.9 1021.5 0.0
23/04:30am 11.9 11.8 9.6 86 1.2 CALM 0 0 0 0 1021.7 1021.3 0.0
23/04:00am 12.4 12.4 9.8 84 1.3 CALM 0 0 0 0 1021.7 1021.3 0.0
23/03:30am 12.3 12.2 9.5 83 1.4 CALM 0 0 0 0 1021.5 1021.1 0.0
23/03:00am 12.6 11.7 9.4 81 1.6 S 4 6 2 3 1021.5 1021.1 0.0
23/02:30am 12.9 12.0 9.4 79 1.8 S 4 4 2 2 1021.6 1021.2 0.0
23/02:00am 13.2 12.0 9.5 78 1.9 S 6 6 3 3 1021.8 1021.4 0.0
23/01:30am 14.3 14.1 10.5 78 2.0 SSW 2 4 1 2 1022.0 1021.6 0.0
23/01:00am 14.1 14.3 10.5 79 1.9 CALM 0 0 0 0 1022.2 1021.8 0.0
23/12:30am 14.2 14.1 9.4 73 2.5 ENE 0 0 0 0 1022.4 1022.0 0.0
23/12:00am 14.5 14.2 8.7 68 2.9 ENE 0 0 0 0 1022.6 1022.2 0.0
 
Date/Time
EST
Temp
°C
App
Temp
°C
Dew
Point
Rel
Hum
%
Delta-T
°C
Wind Press
QNH
hPa
Press
MSL
hPa
Rain
since 9 am
mm
Dir
 
Spd
km/h
Gust
km/h
Spd
kts
Gust
kts
22/11:30pm 15.7 15.8 10.0 69 3.0 CALM 0 0 0 0 1022.6 1022.2 0.0
22/11:00pm 16.4 15.7 10.0 66 3.4 ENE 4 6 2 3 1022.7 1022.3 0.0
22/10:30pm 16.8 15.5 10.0 64 3.6 E 7 9 4 5 1022.7 1022.3 0.0
22/10:00pm 17.4 16.1 10.1 62 3.9 E 7 11 4 6 1022.8 1022.4 0.0
22/09:30pm 17.7 16.1 10.1 61 4.1 ENE 9 13 5 7 1022.7 1022.3 0.0
22/09:00pm 18.4 16.4 10.0 58 4.5 E 11 13 6 7 1022.7 1022.3 0.0
22/08:30pm 19.8 17.8 10.2 54 5.2 E 11 15 6 8 1022.4 1022.0 0.0
22/08:00pm 20.8 17.6 10.0 50 5.8 ENE 17 22 9 12 1022.0 1021.6 0.0
22/07:30pm 21.6 18.8 10.1 48 6.3 E 15 20 8 11 1021.4 1021.0 0.0
22/07:00pm 22.5 19.7 10.0 45 6.8 E 15 24 8 13 1020.9 1020.5 0.0
22/06:30pm 23.4 19.6 9.8 42 7.4 E 20 28 11 15 1020.5 1020.1 0.0
22/06:00pm 24.7 20.5 8.2 35 8.8 ENE 20 30 11 16 1020.0 1019.6 0.0
22/05:30pm 26.3 23.3 7.8 31 9.9 E 13 17 7 9 1019.7 1019.3 0.0
22/05:00pm 27.2 23.0 7.6 29 10.5 E 19 22 10 12 1019.4 1019.0 0.0
22/04:30pm 26.6 24.1 8.1 31 10.0 SE 11 20 6 11 1019.3 1018.9 0.0
22/04:00pm 27.4 23.7 7.8 29 10.6 E 17 28 9 15 1019.2 1018.8 0.0
22/03:30pm 28.5 25.2 8.2 28 11.1 SSE 15 24 8 13 1019.3 1018.9 0.0
22/03:00pm 27.6 24.4 8.5 30 10.4 ESE 15 24 8 13 1019.5 1019.1 0.0
22/02:30pm 27.1 23.7 9.0 32 10.0 SSE 17 30 9 16 1020.0 1019.6 0.0
22/02:00pm 26.8 24.7 9.6 34 9.5 S 11 22 6 12 1020.4 1020.0 0.0
22/01:30pm 27.2 24.5 10.4 35 9.5 ENE 15 26 8 14 1020.9 1020.5 0.0
22/01:00pm 26.0 23.1 9.8 36 9.0 E 15 26 8 14 1021.4 1021.0 0.0
22/12:30pm 25.2 22.5 10.3 39 8.3 ESE 15 24 8 13 1021.8 1021.4 0.0
22/12:00pm 24.4 22.1 10.3 41 7.8 E 13 20 7 11 1022.5 1022.1 0.0
22/11:30am 23.8 21.9 10.5 43 7.4 E 11 22 6 12 1023.2 1022.8 0.0
22/11:00am 23.6 21.3 10.6 44 7.2 ENE 13 22 7 12 1023.9 1023.4 0.0
22/10:30am 23.0 21.6 10.8 46 6.8 ESE 9 20 5 11 1024.3 1023.8 0.0
22/10:00am 22.8 20.6 10.9 47 6.6 E 13 20 7 11 1024.5 1024.0 0.0
22/09:30am 22.1 20.3 10.9 49 6.2 ESE 11 20 6 11 1024.8 1024.3 0.0
22/09:00am 21.2 18.7 11.2 53 5.5 SE 15 22 8 12 1025.0 1024.5 0.0
22/08:30am 21.1 20.0 12.0 56 5.1 E 9 20 5 11 1024.9 1024.4 0.0
22/08:00am 20.5 20.0 12.7 61 4.4 ESE 7 13 4 7 1025.0 1024.5 0.0
22/07:30am 19.7 18.5 12.7 64 4.0 SE 11 17 6 9 1025.0 1024.5 0.0
22/07:00am 19.0 17.6 12.3 65 3.7 SE 11 17 6 9 1024.7 1024.2 0.0
22/06:30am 18.4 17.4 12.4 68 3.4 SSE 9 13 5 7 1024.5 1024.0 0.0
22/06:00am 18.0 18.1 12.7 71 3.0 S 4 6 2 3 1024.0 1023.5 0.0
22/05:30am 17.7 17.8 12.6 72 2.9 SE 4 6 2 3 1023.7 1023.2 0.0
22/05:00am 17.2 17.2 12.3 73 2.7 SSE 4 6 2 3 1023.5 1023.1 0.0
22/04:30am 17.6 17.1 11.9 69 3.1 ESE 6 11 3 6 1023.3 1022.9 0.0
22/04:00am 18.4 18.1 12.6 69 3.2 SE 6 9 3 5 1023.3 1022.9 0.0
22/03:30am 18.0 17.1 12.5 70 3.1 ESE 9 15 5 8 1023.4 1023.0 0.0
22/03:00am 18.2 16.9 12.4 69 3.2 SE 11 17 6 9 1023.3 1022.9 0.0
22/02:30am 18.2 17.3 12.6 70 3.1 SE 9 15 5 8 1023.9 1023.4 0.0
22/02:00am 17.4 17.3 13.3 77 2.3 SE 6 9 3 5 1023.9 1023.4 0.0
22/01:30am 17.1 17.3 13.0 77 2.3 SSW 4 4 2 2 1024.1 1023.6 0.0
22/01:00am 18.0 18.7 13.3 74 2.7 NNE 2 4 1 2 1024.4 1023.9 0.0
22/12:30am 18.4 18.7 13.3 72 2.9 ESE 4 6 2 3 1025.0 1024.5 0.0
22/12:00am 18.9 18.3 13.5 71 3.1 E 9 13 5 7 1025.3 1024.8 0.0
 
Date/Time
EST
Temp
°C
App
Temp
°C
Dew
Point
Rel
Hum
%
Delta-T
°C
Wind Press
QNH
hPa
Press
MSL
hPa
Rain
since 9 am
mm
Dir
 
Spd
km/h
Gust
km/h
Spd
kts
Gust
kts
21/11:30pm 19.1 19.0 13.9 72 3.0 E 7 11 4 6 1025.6 1025.1 0.0
21/11:00pm 20.0 18.4 13.9 68 3.5 E 15 20 8 11 1025.9 1025.5 0.0
21/10:30pm 20.2 17.3 14.1 68 3.5 E 22 30 12 16 1025.9 1025.5 0.0
21/10:00pm 20.0 19.5 13.9 68 3.5 E 9 15 5 8 1025.9 1025.5 0.0
21/09:30pm 20.4 18.5 14.1 67 3.7 E 17 28 9 15 1026.0 1025.6 0.0
21/09:00pm 20.7 19.7 14.6 68 3.6 E 13 19 7 10 1025.8 1025.3 0.0
21/08:30pm 21.1 19.9 15.0 68 3.6 ENE 15 20 8 11 1025.5 1025.0 0.0
21/08:00pm 21.3 20.4 13.7 62 4.4 E 11 17 6 9 1025.2 1024.7 0.0
21/07:30pm 21.9 20.3 13.8 60 4.7 E 15 20 8 11 1024.8 1024.3 0.0
21/07:00pm 22.6 20.2 13.7 57 5.2 E 19 28 10 15 1024.6 1024.1 0.0
21/06:30pm 23.0 21.3 13.5 55 5.5 E 15 22 8 12 1024.1 1023.6 0.0
21/06:00pm 23.7 21.2 13.6 53 5.9 E 19 32 10 17 1023.8 1023.3 0.0
21/05:30pm 24.3 21.9 14.4 54 5.9 E 20 30 11 16 1023.3 1022.9 0.0
21/05:00pm 24.8 21.9 14.0 51 6.4 ENE 22 26 12 14 1023.0 1022.6 0.0
21/04:30pm 25.1 22.5 13.3 48 6.9 E 19 32 10 17 1022.6 1022.2 0.0
21/04:00pm 25.8 23.5 14.0 48 7.0 E 19 28 10 15 1022.6 1022.2 0.0
21/03:30pm 26.0 23.1 14.1 47 7.1 E 22 32 12 17 1022.7 1022.3 0.0
21/03:00pm 24.8 21.4 13.7 50 6.5 ESE 24 33 13 18 1022.9 1022.5 0.0
21/02:30pm 25.7 22.9 13.2 46 7.3 E 20 35 11 19 1022.8 1022.4 0.0
21/02:00pm 26.0 22.7 12.8 44 7.7 E 22 30 12 16 1022.8 1022.4 0.0
21/01:30pm 26.1 22.7 12.5 42 7.9 E 22 32 12 17 1023.1 1022.7 0.0
21/01:00pm 26.6 23.6 11.9 40 8.4 SE 19 28 10 15 1023.3 1022.9 0.0
21/12:30pm 28.1 25.0 11.6 36 9.5 ESE 19 33 10 18 1023.7 1023.2 0.0
21/12:00pm 26.7 23.6 11.6 39 8.6 SE 19 24 10 13 1024.3 1023.8 0.0
21/11:30am 27.9 24.8 12.3 38 9.1 E 20 33 11 18 1024.8 1024.3 0.0
21/11:00am 26.6 21.8 11.5 39 8.6 E 28 33 15 18 1025.1 1024.6 0.0
21/10:30am 25.7 21.2 11.5 41 8.1 E 26 37 14 20 1025.4 1024.9 0.0
21/10:00am 25.5 21.7 11.3 41 8.0 ESE 22 35 12 19 1025.7 1025.2 0.0
21/09:30am 25.4 22.1 11.6 42 7.9 E 20 26 11 14 1025.9 1025.5 0.0
21/09:00am 25.0 21.7 11.6 43 7.6 ESE 20 35 11 19 1026.1 1025.7 0.0
21/08:30am 23.3 20.0 11.0 46 6.9 E 19 30 10 16 1026.2 1025.8 0.0
21/08:00am 22.7 19.3 11.1 48 6.4 E 20 33 11 18 1026.1 1025.7 0.0
21/07:30am 21.0 18.8 12.2 57 5.0 ENE 15 20 8 11 1025.9 1025.5 0.0
21/07:00am 20.2 20.0 12.9 63 4.1 E 6 11 3 6 1025.9 1025.5 0.0
21/06:30am 17.3 18.1 12.6 74 2.6 CALM 0 0 0 0 1025.6 1025.1 0.0
21/06:00am 15.3 15.9 11.9 80 1.8 CALM 0 2 0 1 1025.4 1024.9 0.0
21/05:30am 14.0 14.0 11.2 83 1.5 S 2 4 1 2 1025.1 1024.6 0.0
21/05:00am 14.3 14.9 12.0 86 1.2 CALM 0 0 0 0 1024.6 1024.1 0.0
21/04:30am 14.6 15.3 12.3 86 1.3 CALM 0 0 0 0 1024.3 1023.8 0.0
21/04:00am 14.6 14.6 11.2 80 1.8 S 2 4 1 2 1024.1 1023.6 0.0
21/03:30am 15.6 16.2 12.0 79 2.0 CALM 0 0 0 0 1024.1 1023.6 0.0
21/03:00am 15.5 16.0 11.7 78 2.1 CALM 0 0 0 0 1024.2 1023.7 0.0
21/02:30am 15.7 15.8 11.5 76 2.3 SSE 2 4 1 2 1024.5 1024.0 0.0
21/02:00am 16.1 15.6 12.1 77 2.2 E 6 7 3 4 1024.7 1024.2 0.0
21/01:30am 15.9 15.0 11.3 74 2.5 E 7 9 4 5 1024.7 1024.2 0.0
21/01:00am 17.2 16.5 11.9 71 2.9 E 7 9 4 5 1025.0 1024.5 0.0
21/12:30am 16.8 16.0 11.7 72 2.8 E 7 11 4 6 1025.2 1024.7 0.0
21/12:00am 17.3 16.7 11.8 70 3.0 ESE 6 7 3 4 1025.4 1024.9 0.0
 
Date/Time
EST
Temp
°C
App
Temp
°C
Dew
Point
Rel
Hum
%
Delta-T
°C
Wind Press
QNH
hPa
Press
MSL
hPa
Rain
since 9 am
mm
Dir
 
Spd
km/h
Gust
km/h
Spd
kts
Gust
kts
20/11:30pm 16.9 16.0 11.4 70 3.0 E 7 7 4 4 1025.6 1025.1 0.0
20/11:00pm 17.2 16.3 11.2 68 3.2 ENE 7 9 4 5 1025.7 1025.2 0.0
20/10:30pm 18.7 16.8 11.8 64 3.8 ENE 13 19 7 10 1025.7 1025.2 0.0
20/10:00pm 19.5 16.7 11.5 60 4.4 ENE 17 24 9 13 1025.4 1024.9 0.0
20/09:30pm 20.1 16.6 10.2 53 5.4 ENE 19 22 10 12 1025.1 1024.6 0.0
20/09:00pm 20.9 19.3 11.5 55 5.2 NE 11 17 6 9 1024.7 1024.2 0.0
20/08:30pm 21.5 19.6 11.8 54 5.4 NE 13 19 7 10 1024.0 1023.5 0.0
20/08:00pm 22.6 19.4 12.0 51 6.0 NE 20 28 11 15 1023.1 1022.7 0.0
20/07:30pm 23.4 19.9 12.1 49 6.4 NE 22 32 12 17 1022.5 1022.1 0.0
20/07:00pm 24.6 21.3 11.5 44 7.4 NE 20 28 11 15 1021.9 1021.5 0.0
20/06:30pm 26.6 22.0 9.5 34 9.5 ENE 24 32 13 17 1021.1 1020.7 0.0
20/06:00pm 27.6 23.0 5.8 25 11.4 E 19 26 10 14 1020.3 1019.9 0.0
20/05:30pm 28.8 24.4 5.0 22 12.4 ENE 17 22 9 12 1019.9 1019.5 0.0
20/05:00pm 29.9 25.2 5.2 21 12.9 E 19 30 10 16 1019.5 1019.1 0.0
20/04:30pm 30.4 25.1 4.9 20 13.3 ENE 22 26 12 14 1019.2 1018.8 0.0
20/04:00pm 30.4 25.5 4.2 19 13.5 E 19 22 10 12 1019.2 1018.8 0.0
20/03:30pm 30.5 25.8 5.0 20 13.4 ENE 19 26 10 14 1019.2 1018.8 0.0
20/03:00pm 30.8 26.4 4.5 19 13.7 E 17 24 9 13 1019.3 1018.9 0.0
20/02:30pm 30.4 26.8 4.9 20 13.3 ESE 13 26 7 14 1019.6 1019.2 0.0
20/02:00pm 30.6 25.1 5.8 21 13.1 E 24 28 13 15 1020.0 1019.6 0.0
20/01:30pm 30.0 26.5 7.2 24 12.4 SE 15 22 8 12 1020.6 1020.2 0.0
20/01:00pm 28.6 26.7 6.7 25 11.7 NNW 6 11 3 6 1021.1 1020.7 0.0
20/12:30pm 28.4 24.0 6.5 25 11.6 ENE 19 30 10 16 1021.7 1021.3 0.0
20/12:00pm 27.6 25.2 6.9 27 11.0 ENE 9 22 5 12 1022.3 1021.9 0.0
20/11:30am 26.8 23.8 7.8 30 10.2 ENE 13 22 7 12 1022.9 1022.5 0.0
20/11:00am 25.8 24.1 7.4 31 9.7 NNE 6 13 3 7 1023.7 1023.2 0.0
20/10:30am 25.3 23.2 8.3 34 9.2 E 9 17 5 9 1024.2 1023.7 0.0
20/10:00am 23.9 22.7 9.5 40 7.8 N 6 11 3 6 1024.9 1024.4 0.0
20/09:30am 23.2 22.1 9.9 43 7.3 NNE 6 11 3 6 1025.2 1024.7 0.0
20/09:00am 21.9 20.9 10.4 48 6.3 NE 6 19 3 10 1025.6 1025.1 0.0

Other Formats:

Comma delimited format used in spreadsheet applications
http://www.bom.gov.au/fwo/IDQ60801/IDQ60801.95543.axf

JavaScript Object Notation format (JSON) in row-major order
http://www.bom.gov.au/fwo/IDQ60801/IDQ60801.95543.json